createdAt,value
2018-12-06T00:00:06.851Z,11.70
2018-12-06T00:02:35.358Z,18.00
2018-12-06T00:05:03.943Z,19.52
2018-12-06T00:07:32.769Z,12.85
2018-12-06T00:10:01.281Z,12.85
2018-12-06T00:12:30.119Z,12.95
2018-12-06T00:15:09.895Z,16.30
2018-12-06T00:17:39.710Z,11.28
2018-12-06T00:20:08.549Z,16.32
2018-12-06T00:22:37.406Z,11.83
2018-12-06T00:25:05.917Z,16.52
2018-12-06T00:27:34.447Z,13.45
2018-12-06T00:30:14.220Z,10.90
2018-12-06T00:32:43.389Z,10.48
2018-12-06T00:35:12.245Z,14.03
2018-12-06T00:37:41.370Z,13.35
2018-12-06T00:40:09.889Z,12.33
2018-12-06T00:42:38.720Z,12.85
2018-12-06T00:45:07.897Z,15.63
2018-12-06T00:47:36.410Z,10.65
2018-12-06T00:50:04.988Z,9.45
2018-12-06T00:52:33.500Z,12.88
2018-12-06T00:55:02.361Z,16.17
2018-12-06T00:57:31.531Z,18.37
2018-12-06T01:00:00.737Z,11.80
2018-12-06T01:02:29.240Z,12.60
2018-12-06T01:04:57.746Z,23.40
2018-12-06T01:07:26.593Z,17.42
2018-12-06T01:09:55.109Z,14.40
2018-12-06T01:12:23.959Z,11.75
2018-12-06T01:14:52.476Z,17.60
2018-12-06T01:17:20.993Z,11.22
2018-12-06T01:19:49.500Z,12.75
2018-12-06T01:22:18.005Z,18.75
2018-12-06T01:24:46.543Z,16.85
2018-12-06T01:27:15.416Z,12.45
2018-12-06T01:29:43.973Z,14.40
2018-12-06T01:32:12.488Z,16.77
2018-12-06T01:34:41.351Z,16.05
2018-12-06T01:37:09.859Z,17.25
2018-12-06T01:39:38.702Z,17.75
2018-12-06T01:42:07.568Z,15.38
2018-12-06T01:44:36.101Z,16.65
2018-12-06T01:47:04.708Z,17.12
2018-12-06T01:49:33.546Z,17.30
2018-12-06T01:52:02.073Z,15.28
2018-12-06T01:54:30.560Z,15.60
2018-12-06T01:56:59.241Z,14.07
2018-12-06T01:59:28.071Z,12.70
2018-12-06T02:01:56.555Z,15.30
2018-12-06T02:04:25.408Z,18.60
2018-12-06T02:06:53.904Z,16.05
2018-12-06T02:09:22.391Z,15.30
2018-12-06T02:11:51.229Z,12.55
2018-12-06T02:14:20.069Z,13.75
2018-12-06T02:16:48.897Z,11.95
2018-12-06T02:19:18.055Z,10.20
2018-12-06T02:21:47.222Z,14.23
2018-12-06T02:24:16.066Z,14.30
2018-12-06T02:26:44.561Z,16.85
2018-12-06T02:29:13.426Z,12.95
2018-12-06T02:31:42.253Z,14.80
2018-12-06T02:34:11.079Z,12.33
2018-12-06T02:36:39.598Z,10.85
2018-12-06T02:39:08.378Z,10.88
2018-12-06T02:41:37.252Z,12.43
2018-12-06T02:44:06.440Z,15.15
2018-12-06T02:46:34.991Z,11.28
2018-12-06T02:49:03.881Z,13.32
2018-12-06T02:51:32.392Z,10.80
2018-12-06T02:54:00.893Z,12.05
2018-12-06T02:56:29.770Z,12.73
2018-12-06T02:58:58.652Z,12.45
2018-12-06T03:01:27.172Z,12.90
2018-12-06T03:03:55.953Z,11.60
2018-12-06T03:06:25.124Z,10.65
2018-12-06T03:08:53.640Z,11.15
2018-12-06T03:11:22.177Z,15.88
2018-12-06T03:13:50.705Z,11.15
2018-12-06T03:16:19.237Z,8.80
2018-12-06T03:18:47.770Z,16.57
2018-12-06T03:21:16.671Z,10.58
2018-12-06T03:23:45.993Z,9.60
2018-12-06T03:26:14.494Z,16.17
2018-12-06T03:28:43.353Z,13.83
2018-12-06T03:31:11.875Z,9.28
2018-12-06T03:33:40.373Z,7.58
2018-12-06T03:36:09.184Z,10.10
2018-12-06T03:38:38.010Z,10.63
2018-12-06T03:41:06.559Z,8.43
2018-12-06T03:43:35.400Z,10.65
2018-12-06T03:46:03.911Z,7.20
2018-12-06T03:48:32.737Z,8.83
2018-12-06T03:51:01.225Z,9.55
2018-12-06T03:53:29.731Z,14.35
2018-12-06T03:55:58.549Z,8.05
2018-12-06T03:58:27.717Z,8.78
2018-12-06T04:00:56.538Z,14.43
2018-12-06T04:03:25.363Z,7.03
2018-12-06T04:05:53.863Z,6.78
2018-12-06T04:08:22.692Z,9.35
2018-12-06T04:10:51.209Z,9.83
2018-12-06T04:13:19.713Z,10.68
2018-12-06T04:15:48.569Z,8.38
2018-12-06T04:18:17.461Z,7.72
2018-12-06T04:20:46.299Z,13.00
2018-12-06T04:23:14.831Z,10.48
2018-12-06T04:25:43.652Z,9.30
2018-12-06T04:28:12.149Z,6.05
2018-12-06T04:30:40.972Z,6.05
2018-12-06T04:33:09.457Z,9.85
2018-12-06T04:35:38.297Z,10.32
2018-12-06T04:38:06.787Z,10.23
2018-12-06T04:40:35.944Z,10.68
2018-12-06T04:43:04.752Z,8.83
2018-12-06T04:45:33.586Z,12.30
2018-12-06T04:48:02.101Z,13.25
2018-12-06T04:50:30.591Z,9.30
2018-12-06T04:52:59.755Z,9.20
2018-12-06T04:55:28.251Z,9.50
2018-12-06T04:57:56.761Z,11.90
2018-12-06T05:00:25.600Z,15.28
2018-12-06T05:02:54.102Z,24.52
2018-12-06T05:05:22.972Z,15.83
2018-12-06T05:07:51.522Z,14.55
2018-12-06T05:10:20.360Z,11.73
2018-12-06T05:12:53.554Z,14.73
2018-12-06T05:15:22.663Z,16.57
2018-12-06T05:17:52.092Z,12.18
2018-12-06T05:20:21.468Z,14.10
2018-12-06T05:22:49.951Z,12.55
2018-12-06T05:25:18.427Z,12.20
2018-12-06T05:27:48.292Z,26.80
2018-12-06T05:30:17.595Z,13.28
2018-12-06T05:32:47.808Z,11.93
2018-12-06T05:35:17.161Z,12.75
2018-12-06T05:37:46.035Z,13.83
2018-12-06T05:40:14.562Z,14.53
2018-12-06T05:42:43.110Z,13.50
2018-12-06T05:45:11.975Z,11.93
2018-12-06T05:47:40.488Z,11.63
2018-12-06T05:50:09.426Z,12.03
2018-12-06T05:52:37.932Z,16.12
2018-12-06T05:55:06.831Z,17.27
2018-12-06T05:57:35.351Z,14.47
2018-12-06T06:00:04.632Z,10.65
2018-12-06T06:02:34.310Z,19.17
2018-12-06T06:05:02.794Z,14.07
2018-12-06T06:07:31.615Z,11.85
2018-12-06T06:10:00.155Z,11.33
2018-12-06T06:35:52.357Z,10.82
2018-12-06T06:56:20.191Z,11.15
2018-12-06T06:58:49.518Z,12.00
2018-12-06T07:01:22.334Z,12.28
2018-12-06T07:03:51.330Z,17.30
2018-12-06T07:09:32.538Z,12.03
2018-12-06T07:19:06.840Z,10.32
2018-12-06T07:21:37.613Z,8.88
2018-12-06T07:24:07.143Z,9.75
2018-12-06T07:26:36.800Z,11.55
2018-12-06T07:29:06.697Z,17.07
2018-12-06T07:31:37.213Z,13.35
2018-12-06T07:34:07.219Z,13.43
2018-12-06T07:36:37.435Z,11.45
2018-12-06T07:39:08.315Z,10.68
2018-12-06T07:41:37.511Z,13.10
2018-12-06T07:44:07.139Z,10.00
2018-12-06T07:46:36.871Z,12.43
2018-12-06T07:49:06.291Z,14.50
2018-12-06T07:51:35.167Z,12.58
2018-12-06T07:54:04.329Z,15.30
2018-12-06T07:56:38.217Z,11.03
2018-12-06T07:59:08.777Z,14.33
2018-12-06T08:01:37.950Z,13.13
2018-12-06T08:04:07.132Z,11.35
2018-12-06T08:06:36.673Z,10.93
2018-12-06T08:09:08.445Z,11.20
2018-12-06T08:11:38.756Z,12.43
2018-12-06T08:14:06.601Z,9.65
2018-12-06T08:16:36.054Z,12.65
2018-12-06T08:19:06.259Z,16.27
2018-12-06T08:21:39.994Z,16.52
2018-12-06T08:24:10.776Z,12.90
2018-12-06T08:26:39.652Z,15.20
2018-12-06T08:29:09.347Z,15.35
2018-12-06T08:31:42.769Z,15.35
2018-12-06T08:34:11.700Z,13.45
2018-12-06T08:36:40.237Z,13.98
2018-12-06T08:39:12.441Z,17.40
2018-12-06T09:02:14.625Z,11.50
2018-12-06T09:13:38.713Z,17.20
2018-12-06T09:17:09.062Z,15.58
2018-12-06T09:37:38.012Z,11.08
2018-12-06T09:45:46.276Z,15.23
2018-12-06T09:48:26.657Z,14.45
2018-12-06T09:54:05.719Z,11.25
2018-12-06T09:57:06.149Z,13.05
2018-12-06T10:00:04.506Z,15.78
2018-12-06T10:03:09.925Z,18.50
2018-12-06T10:05:51.600Z,15.83
2018-12-06T10:08:35.810Z,13.62
2018-12-06T10:19:39.189Z,15.25
2018-12-06T10:25:29.288Z,12.35
2018-12-06T10:39:55.447Z,12.43
2018-12-06T10:42:57.541Z,15.08
2018-12-06T10:45:49.235Z,20.40
2018-12-06T10:48:29.380Z,12.88
2018-12-06T10:51:11.239Z,14.83
2018-12-06T10:53:45.923Z,13.43
2018-12-06T10:56:27.399Z,11.93
2018-12-06T11:02:09.251Z,10.98
2018-12-06T11:07:45.597Z,13.53
2018-12-06T11:13:22.783Z,16.95
2018-12-06T11:16:02.966Z,14.60
2018-12-06T11:18:36.433Z,13.40
2018-12-06T11:21:17.044Z,18.77
2018-12-06T11:29:33.864Z,17.50
2018-12-06T11:32:16.734Z,15.00
2018-12-06T11:34:53.719Z,14.75
2018-12-06T11:37:55.171Z,12.05
2018-12-06T11:40:29.740Z,15.70
2018-12-06T11:43:08.598Z,18.50
2018-12-06T11:45:50.826Z,18.27
2018-12-06T11:48:32.838Z,17.62
2018-12-06T11:51:09.121Z,20.62
2018-12-06T11:53:50.855Z,15.85
2018-12-06T11:56:33.097Z,20.17
2018-12-06T11:59:11.683Z,19.90
2018-12-06T12:01:58.374Z,22.10
2018-12-06T12:04:45.556Z,19.30
2018-12-06T12:07:36.736Z,18.60
2018-12-06T12:10:19.685Z,17.65
2018-12-06T12:13:28.282Z,13.18
2018-12-06T12:19:09.996Z,19.67
2018-12-06T12:21:58.189Z,18.30
2018-12-06T12:31:14.949Z,17.07
2018-12-06T12:36:41.324Z,20.52
2018-12-06T12:39:26.100Z,18.55
2018-12-06T12:53:23.147Z,14.20
2018-12-06T12:56:06.062Z,17.40
2018-12-06T13:01:17.026Z,18.77
2018-12-06T13:03:55.419Z,22.62
2018-12-06T13:06:34.600Z,17.85
2018-12-06T13:09:25.948Z,21.87
2018-12-06T13:12:15.677Z,17.92
2018-12-06T13:14:57.357Z,17.15
2018-12-06T13:20:32.648Z,19.52
2018-12-06T13:23:17.853Z,20.35
2018-12-06T13:26:03.963Z,23.75
2018-12-06T13:28:49.141Z,21.40
2018-12-06T13:31:26.704Z,22.42
2018-12-06T13:34:06.607Z,20.65
2018-12-06T13:36:46.035Z,14.58
2018-12-06T13:41:59.598Z,23.50
2018-12-06T13:50:58.944Z,23.67
2018-12-06T13:53:45.750Z,23.75
2018-12-06T13:56:25.739Z,20.62
2018-12-06T13:59:05.727Z,20.77
2018-12-06T14:03:23.881Z,21.62
2018-12-06T14:08:54.062Z,20.92
2018-12-06T14:11:49.643Z,21.77
2018-12-06T14:17:33.727Z,25.10
2018-12-06T14:20:12.410Z,20.68
2018-12-06T14:23:04.233Z,24.60
2018-12-06T14:26:09.014Z,22.30
2018-12-06T14:34:43.596Z,26.50
2018-12-06T14:54:55.040Z,26.60
2018-12-06T14:58:02.692Z,29.65
2018-12-06T15:01:45.191Z,28.42
2018-12-06T15:07:29.821Z,30.25
2018-12-06T15:10:08.889Z,32.60
2018-12-06T15:12:48.244Z,37.88
2018-12-06T15:15:28.544Z,32.05
2018-12-06T15:18:05.202Z,41.92
2018-12-06T15:20:44.582Z,38.53
2018-12-06T15:23:17.686Z,36.60
2018-12-06T15:25:55.273Z,34.25
2018-12-06T15:28:32.120Z,27.70
2018-12-06T15:31:12.334Z,38.35
2018-12-06T15:33:50.231Z,35.80
2018-12-06T15:36:30.686Z,30.00
2018-12-06T15:39:15.780Z,31.55
2018-12-06T15:45:02.860Z,31.93
2018-12-06T15:47:46.412Z,30.37
2018-12-06T15:50:22.607Z,35.98
2018-12-06T15:53:00.898Z,30.45
2018-12-06T15:55:42.574Z,33.42
2018-12-06T16:01:19.904Z,39.42
2018-12-06T16:03:59.605Z,41.15
2018-12-06T16:09:23.289Z,32.03
2018-12-06T16:12:20.237Z,32.60
2018-12-06T16:18:32.647Z,33.35
2018-12-06T16:40:11.814Z,33.65
2018-12-06T16:42:47.426Z,35.90
2018-12-06T16:45:28.604Z,36.60
2018-12-06T16:48:10.005Z,33.42
2018-12-06T16:50:38.536Z,27.73
2018-12-06T16:53:07.019Z,31.70
2018-12-06T16:55:35.517Z,30.70
2018-12-06T16:58:04.610Z,29.72
2018-12-06T17:00:33.091Z,28.83
2018-12-06T17:03:01.705Z,25.60
2018-12-06T17:05:30.466Z,30.00
2018-12-06T17:07:59.085Z,28.90
2018-12-06T17:10:27.678Z,33.02
2018-12-06T17:12:56.327Z,30.62
2018-12-06T17:15:25.698Z,29.07
2018-12-06T17:17:54.582Z,35.00
2018-12-06T17:20:27.053Z,26.62
2018-12-06T17:22:56.893Z,29.23
2018-12-06T17:25:26.240Z,27.27
2018-12-06T17:27:55.504Z,31.57
2018-12-06T17:30:24.811Z,28.00
2018-12-06T17:32:56.151Z,26.95
2018-12-06T17:35:24.683Z,30.00
2018-12-06T17:37:53.243Z,35.28
2018-12-06T17:40:22.445Z,28.45
2018-12-06T17:42:50.943Z,30.10
2018-12-06T17:45:19.946Z,33.92
2018-12-06T17:47:49.124Z,28.75
2018-12-06T17:53:52.383Z,31.12
2018-12-06T17:56:18.484Z,33.65
2018-12-06T17:58:47.571Z,37.53
2018-12-06T18:01:16.269Z,36.05
2018-12-06T18:03:47.250Z,35.23
2018-12-06T18:06:15.758Z,35.50
2018-12-06T18:08:46.124Z,28.25
2018-12-06T18:11:15.998Z,30.70
2018-12-06T18:13:45.154Z,31.50
2018-12-06T18:16:19.525Z,26.55
2018-12-06T18:19:21.606Z,28.15
2018-12-06T18:28:00.274Z,29.18
2018-12-06T18:33:13.896Z,33.50
2018-12-06T18:35:49.997Z,25.90
2018-12-06T18:38:20.228Z,27.30
2018-12-06T18:40:48.900Z,30.20
2018-12-06T18:43:17.663Z,31.40
2018-12-06T18:45:47.276Z,27.62
2018-12-06T18:48:16.306Z,39.25
2018-12-06T18:50:53.693Z,30.60
2018-12-06T18:53:26.266Z,29.10
2018-12-06T18:56:52.347Z,26.25
2018-12-06T19:24:22.439Z,37.08
2018-12-06T19:26:56.966Z,31.93
2018-12-06T19:29:28.559Z,33.10
2018-12-06T19:34:59.193Z,34.03
2018-12-06T19:58:45.600Z,41.58
2018-12-06T20:04:07.220Z,40.17
2018-12-06T20:06:37.310Z,38.17
2018-12-06T20:09:14.031Z,35.70
2018-12-06T20:24:05.394Z,37.17
2018-12-06T20:26:40.648Z,38.83
2018-12-06T20:29:13.040Z,40.88
2018-12-06T20:32:03.233Z,37.10
2018-12-06T20:47:46.874Z,33.28
2018-12-06T20:50:21.523Z,35.70
2018-12-06T20:53:37.072Z,32.75
2018-12-06T20:56:11.129Z,36.60
2018-12-06T20:58:51.737Z,37.85
2018-12-06T21:01:30.968Z,34.58
2018-12-06T21:23:52.463Z,38.83
2018-12-06T21:42:15.833Z,36.17
2018-12-06T21:44:44.686Z,41.58
2018-12-06T22:14:31.122Z,35.58
